createdAt,value
2017-10-26T00:00:32.314Z,15.10
2017-10-26T00:03:01.934Z,15.10
2017-10-26T00:05:31.152Z,15.10
2017-10-26T00:08:00.016Z,15.10
2017-10-26T00:10:29.658Z,15.10
2017-10-26T00:12:58.510Z,15.00
2017-10-26T00:15:28.440Z,15.10
2017-10-26T00:17:58.062Z,15.00
2017-10-26T00:20:26.956Z,15.00
2017-10-26T00:22:55.853Z,15.00
2017-10-26T00:25:24.707Z,15.00
2017-10-26T00:27:53.568Z,15.00
2017-10-26T00:30:22.433Z,15.00
2017-10-26T00:32:51.288Z,15.00
2017-10-26T00:35:20.908Z,15.00
2017-10-26T00:37:50.518Z,15.10
2017-10-26T00:40:20.155Z,15.10
2017-10-26T00:42:49.002Z,15.10
2017-10-26T00:45:18.623Z,15.00
2017-10-26T00:47:48.245Z,15.00
2017-10-26T00:50:17.104Z,15.00
2017-10-26T00:52:45.963Z,15.00
2017-10-26T00:55:16.024Z,15.00
2017-10-26T00:57:45.286Z,14.90
2017-10-26T01:00:13.455Z,14.90
2017-10-26T01:02:41.993Z,14.80
2017-10-26T01:05:11.631Z,14.80
2017-10-26T01:07:41.266Z,14.80
2017-10-26T01:10:10.122Z,14.80
2017-10-26T01:12:38.630Z,14.70
2017-10-26T01:15:07.910Z,14.70
2017-10-26T01:17:36.783Z,14.70
2017-10-26T01:20:05.639Z,14.70
2017-10-26T01:22:34.508Z,14.60
2017-10-26T01:25:03.648Z,14.60
2017-10-26T01:27:32.934Z,14.60
2017-10-26T01:30:01.099Z,14.60
2017-10-26T01:32:29.265Z,14.60
2017-10-26T01:34:57.436Z,14.60
2017-10-26T01:37:25.944Z,14.60
2017-10-26T01:39:55.114Z,14.60
2017-10-26T01:42:23.615Z,14.60
2017-10-26T01:44:52.476Z,14.60
2017-10-26T01:47:20.987Z,14.60
2017-10-26T01:49:49.836Z,14.60
2017-10-26T01:52:18.342Z,14.60
2017-10-26T01:54:47.322Z,14.50
2017-10-26T01:57:15.335Z,14.50
2017-10-26T01:59:43.507Z,14.50
2017-10-26T02:02:12.014Z,14.50
2017-10-26T02:04:41.286Z,14.50
2017-10-26T02:07:09.809Z,14.40
2017-10-26T02:09:37.978Z,14.40
2017-10-26T02:12:06.515Z,14.40
2017-10-26T02:14:35.011Z,14.40
2017-10-26T02:17:03.519Z,14.30
2017-10-26T02:19:32.792Z,14.30
2017-10-26T02:22:01.302Z,14.30
2017-10-26T02:24:30.243Z,14.30
2017-10-26T02:26:59.097Z,14.30
2017-10-26T02:29:39.112Z,14.40
2017-10-26T02:32:08.810Z,14.30
2017-10-26T02:34:37.684Z,14.40
2017-10-26T02:37:06.551Z,14.40
2017-10-26T02:39:45.223Z,14.40
2017-10-26T02:42:14.076Z,14.40
2017-10-26T02:44:42.932Z,14.40
2017-10-26T02:47:16.294Z,14.40
2017-10-26T02:49:45.616Z,14.40
2017-10-26T02:52:15.063Z,14.40
2017-10-26T02:54:43.927Z,14.40
2017-10-26T02:57:19.771Z,14.30
2017-10-26T02:59:48.826Z,14.20
2017-10-26T03:02:19.674Z,14.20
2017-10-26T03:04:47.887Z,14.30
2017-10-26T03:07:17.523Z,14.30
2017-10-26T03:09:46.387Z,14.30
2017-10-26T03:12:15.242Z,14.30
2017-10-26T03:14:44.092Z,14.40
2017-10-26T03:17:12.934Z,14.40
2017-10-26T03:19:41.810Z,14.30
2017-10-26T03:22:10.679Z,14.30
2017-10-26T03:24:39.538Z,14.40
2017-10-26T03:27:09.148Z,14.40
2017-10-26T03:29:38.782Z,14.40
2017-10-26T03:32:08.487Z,14.40
2017-10-26T03:34:37.350Z,14.40
2017-10-26T03:37:07.916Z,14.30
2017-10-26T03:39:36.785Z,14.30
2017-10-26T03:42:06.409Z,14.30
2017-10-26T03:44:35.258Z,14.30
2017-10-26T03:47:04.136Z,14.30
2017-10-26T03:49:32.982Z,14.30
2017-10-26T03:52:01.839Z,14.30
2017-10-26T03:54:30.702Z,14.40
2017-10-26T03:56:59.586Z,14.30
2017-10-26T03:59:28.644Z,14.30
2017-10-26T04:01:58.387Z,14.30
2017-10-26T04:04:28.019Z,14.30
2017-10-26T04:06:58.190Z,14.30
2017-10-26T04:09:27.846Z,14.30
2017-10-26T04:11:56.537Z,14.30
2017-10-26T04:14:25.396Z,14.30
2017-10-26T04:16:54.283Z,14.30
2017-10-26T04:19:23.165Z,14.30
2017-10-26T04:21:52.027Z,14.30
2017-10-26T04:24:21.459Z,14.30
2017-10-26T04:26:51.151Z,14.30
2017-10-26T04:29:20.782Z,14.30
2017-10-26T04:31:49.151Z,14.20
2017-10-26T04:34:18.005Z,14.30
2017-10-26T04:36:46.877Z,14.20
2017-10-26T04:39:15.736Z,14.20
2017-10-26T04:41:44.622Z,14.20
2017-10-26T04:44:13.774Z,14.20
2017-10-26T04:46:42.629Z,14.10
2017-10-26T04:49:11.497Z,14.20
2017-10-26T04:51:41.425Z,14.20
2017-10-26T04:54:10.351Z,14.20
2017-10-26T04:56:38.914Z,14.20
2017-10-26T04:59:07.786Z,14.10
2017-10-26T05:01:36.669Z,14.10
2017-10-26T05:04:05.565Z,14.10
2017-10-26T05:06:34.810Z,14.10
2017-10-26T05:09:03.790Z,14.10
2017-10-26T05:11:32.682Z,14.10
2017-10-26T05:14:02.553Z,14.10
2017-10-26T05:16:32.219Z,14.00
2017-10-26T05:19:01.904Z,14.00
2017-10-26T05:21:31.051Z,14.00
2017-10-26T05:23:59.912Z,14.00
2017-10-26T05:26:28.807Z,14.00
2017-10-26T05:28:57.670Z,13.90
2017-10-26T05:31:26.523Z,13.90
2017-10-26T05:33:55.854Z,13.90
2017-10-26T05:36:24.043Z,13.90
2017-10-26T05:38:53.556Z,13.90
2017-10-26T05:41:23.254Z,14.00
2017-10-26T05:43:53.026Z,13.90
2017-10-26T05:46:21.912Z,13.90
2017-10-26T05:48:51.554Z,13.90
2017-10-26T05:51:20.461Z,13.90
2017-10-26T05:53:49.306Z,13.90
2017-10-26T05:56:18.167Z,13.90
2017-10-26T05:58:47.079Z,13.90
2017-10-26T06:01:15.632Z,13.90
2017-10-26T06:03:44.525Z,13.90
2017-10-26T06:06:13.384Z,13.90
2017-10-26T06:08:42.843Z,13.90
2017-10-26T06:11:12.449Z,14.00
2017-10-26T06:13:41.341Z,13.90
2017-10-26T06:16:10.198Z,14.00
2017-10-26T06:18:39.077Z,14.00
2017-10-26T06:21:07.954Z,14.00
2017-10-26T06:23:37.595Z,14.00
2017-10-26T06:26:06.463Z,14.00
2017-10-26T06:28:35.319Z,14.00
2017-10-26T06:31:04.195Z,14.00
2017-10-26T06:33:33.061Z,14.00
2017-10-26T06:36:01.949Z,14.10
2017-10-26T06:38:30.831Z,14.10
2017-10-26T06:41:00.555Z,14.10
2017-10-26T06:43:29.262Z,14.10
2017-10-26T06:45:58.141Z,14.10
2017-10-26T06:48:27.825Z,14.10
2017-10-26T06:50:57.204Z,14.10
2017-10-26T06:53:26.907Z,14.10
2017-10-26T06:55:57.362Z,14.10
2017-10-26T06:58:26.238Z,14.10
2017-10-26T07:00:56.579Z,14.20
2017-10-26T07:03:25.676Z,14.20
2017-10-26T07:05:55.092Z,14.20
2017-10-26T07:08:23.948Z,14.20
2017-10-26T07:10:53.610Z,14.20
2017-10-26T07:13:22.458Z,14.20
2017-10-26T07:15:52.117Z,14.20
2017-10-26T07:18:21.930Z,14.20
2017-10-26T07:20:51.361Z,14.30
2017-10-26T07:23:20.242Z,14.30
2017-10-26T07:25:49.122Z,14.30
2017-10-26T07:28:18.013Z,14.30
2017-10-26T07:30:46.900Z,14.40
2017-10-26T07:33:16.491Z,14.40
2017-10-26T07:35:45.363Z,14.30
2017-10-26T07:38:16.787Z,14.30
2017-10-26T07:40:46.430Z,14.30
2017-10-26T07:43:16.541Z,14.30
2017-10-26T07:45:45.450Z,14.30
2017-10-26T07:48:14.356Z,14.30
2017-10-26T07:50:43.231Z,14.30
2017-10-26T07:53:12.120Z,14.40
2017-10-26T07:55:41.037Z,14.40
2017-10-26T07:58:10.588Z,14.40
2017-10-26T08:00:39.452Z,14.50
2017-10-26T08:03:08.360Z,14.60
2017-10-26T08:05:37.404Z,14.60
2017-10-26T08:08:06.307Z,14.70
2017-10-26T08:10:35.216Z,14.80
2017-10-26T08:13:05.385Z,15.00
2017-10-26T08:15:34.282Z,15.00
2017-10-26T08:18:03.252Z,15.00
2017-10-26T08:20:31.461Z,15.10
2017-10-26T08:23:01.218Z,15.10
2017-10-26T08:25:30.081Z,15.10
2017-10-26T08:27:58.958Z,15.00
2017-10-26T08:30:27.824Z,15.00
2017-10-26T08:32:57.560Z,15.00
2017-10-26T08:35:26.427Z,15.00
2017-10-26T08:37:56.850Z,15.00
2017-10-26T08:40:25.798Z,15.00
2017-10-26T08:42:54.565Z,15.00
2017-10-26T08:45:23.466Z,15.00
2017-10-26T08:47:53.007Z,15.10
2017-10-26T08:50:21.898Z,15.10
2017-10-26T08:52:50.517Z,15.10
2017-10-26T08:55:19.067Z,15.10
2017-10-26T08:57:47.618Z,15.10
2017-10-26T09:00:16.481Z,15.10
2017-10-26T09:02:47.466Z,15.20
2017-10-26T09:05:16.047Z,15.20
2017-10-26T09:07:46.006Z,15.20
2017-10-26T09:10:15.674Z,15.20
2017-10-26T09:12:44.965Z,15.30
2017-10-26T09:15:14.313Z,15.30
2017-10-26T09:17:43.816Z,15.30
2017-10-26T09:20:14.835Z,15.40
2017-10-26T09:22:43.410Z,15.40
2017-10-26T09:25:12.172Z,15.50
2017-10-26T09:27:41.807Z,15.60
2017-10-26T09:30:10.350Z,15.60
2017-10-26T09:32:39.906Z,15.70
2017-10-26T09:35:09.086Z,15.70
2017-10-26T09:37:38.334Z,15.80
2017-10-26T09:40:06.568Z,15.80
2017-10-26T09:42:34.779Z,15.80
2017-10-26T09:45:03.708Z,15.80
2017-10-26T09:47:32.229Z,15.70
2017-10-26T09:50:01.140Z,15.70
2017-10-26T09:52:29.335Z,15.70
2017-10-26T09:54:58.328Z,15.80
2017-10-26T09:57:28.485Z,15.70
2017-10-26T09:59:57.631Z,15.80
2017-10-26T10:02:26.091Z,16.00
2017-10-26T10:04:54.321Z,16.00
2017-10-26T10:07:23.393Z,16.20
2017-10-26T10:09:52.865Z,16.30
2017-10-26T10:56:03.212Z,16.50
2017-10-26T10:58:32.533Z,16.80
2017-10-26T11:01:02.522Z,16.70
2017-10-26T11:03:31.932Z,16.70
2017-10-26T11:06:02.616Z,16.70
2017-10-26T11:08:31.978Z,16.60
2017-10-26T11:11:01.134Z,16.60
2017-10-26T11:13:31.468Z,16.60
2017-10-26T11:16:03.588Z,16.50
2017-10-26T11:18:33.030Z,16.50
2017-10-26T11:21:03.410Z,16.50
2017-10-26T11:23:31.951Z,16.50
2017-10-26T11:26:03.188Z,16.50
2017-10-26T11:28:33.362Z,16.40
2017-10-26T11:31:03.484Z,16.40
2017-10-26T11:33:34.132Z,16.40
2017-10-26T11:36:04.234Z,16.50
2017-10-26T11:38:32.813Z,16.50
2017-10-26T11:41:01.480Z,16.50
2017-10-26T11:43:30.787Z,16.50
2017-10-26T11:45:59.358Z,16.40
2017-10-26T11:48:27.938Z,16.50
2017-10-26T11:50:56.923Z,16.50
2017-10-26T11:53:27.272Z,16.60
2017-10-26T11:55:56.596Z,16.60
2017-10-26T11:58:26.494Z,16.60
2017-10-26T12:00:54.723Z,16.80
2017-10-26T12:03:24.055Z,16.80
2017-10-26T12:05:52.875Z,16.80
2017-10-26T12:08:22.656Z,16.80
2017-10-26T12:10:51.509Z,16.80
2017-10-26T12:13:20.383Z,16.80
2017-10-26T12:15:49.957Z,16.90
2017-10-26T12:18:18.078Z,16.90
2017-10-26T12:20:47.330Z,16.90
2017-10-26T12:23:15.364Z,16.90
2017-10-26T12:25:43.944Z,16.90
2017-10-26T12:28:12.268Z,16.90
2017-10-26T12:30:41.754Z,16.90
2017-10-26T12:33:10.583Z,16.90
2017-10-26T12:35:38.802Z,16.90
2017-10-26T12:38:07.355Z,16.90
2017-10-26T12:40:35.931Z,16.90
2017-10-26T12:43:04.177Z,16.80
2017-10-26T12:45:33.690Z,16.70
2017-10-26T12:48:02.372Z,16.70
2017-10-26T12:50:34.158Z,16.70
2017-10-26T12:53:02.752Z,16.70
2017-10-26T12:55:31.512Z,16.70
2017-10-26T12:57:59.717Z,16.70
2017-10-26T13:00:27.926Z,16.70
2017-10-26T13:02:56.995Z,16.70
2017-10-26T13:05:25.978Z,16.70
2017-10-26T13:07:54.197Z,16.80
2017-10-26T13:10:24.139Z,16.80
2017-10-26T13:12:53.225Z,16.70
2017-10-26T13:15:21.444Z,16.80
2017-10-26T13:17:50.031Z,16.80
2017-10-26T13:20:18.821Z,16.80
2017-10-26T13:22:48.013Z,16.80
2017-10-26T13:25:16.251Z,16.70
2017-10-26T13:27:45.979Z,16.70
2017-10-26T13:30:17.795Z,16.70
2017-10-26T13:32:46.764Z,16.70
2017-10-26T13:35:16.184Z,16.70
2017-10-26T13:37:45.064Z,16.70
2017-10-26T13:40:14.660Z,16.70
2017-10-26T13:42:43.507Z,16.60
2017-10-26T13:45:12.079Z,16.70
2017-10-26T13:47:41.694Z,16.60
2017-10-26T13:50:11.356Z,16.60
2017-10-26T13:52:41.263Z,16.60
2017-10-26T13:55:09.847Z,16.60
2017-10-26T13:57:38.780Z,16.60
2017-10-26T14:00:08.751Z,16.60
2017-10-26T14:02:37.314Z,16.60
2017-10-26T14:05:06.945Z,16.60
2017-10-26T14:07:37.317Z,16.50
2017-10-26T14:10:09.488Z,16.50
2017-10-26T14:12:39.178Z,16.50
2017-10-26T14:15:08.057Z,16.50
2017-10-26T14:17:36.940Z,16.50
2017-10-26T14:20:06.258Z,16.50
2017-10-26T14:22:35.130Z,16.50
2017-10-26T14:25:04.662Z,16.50
2017-10-26T14:27:33.594Z,16.40
2017-10-26T14:30:02.982Z,16.40
2017-10-26T14:32:32.641Z,16.50
2017-10-26T14:35:01.988Z,16.50
2017-10-26T14:37:33.035Z,16.50
2017-10-26T14:40:03.709Z,16.50
2017-10-26T14:42:32.563Z,16.40
2017-10-26T14:45:04.866Z,16.40
2017-10-26T14:47:33.719Z,16.40
2017-10-26T14:50:04.219Z,16.40
2017-10-26T14:52:33.286Z,16.30
2017-10-26T14:55:02.173Z,16.20
2017-10-26T14:57:32.619Z,16.10
2017-10-26T15:00:01.223Z,16.10
2017-10-26T15:02:30.885Z,16.10
2017-10-26T15:04:59.817Z,16.10
2017-10-26T15:07:28.758Z,16.10
2017-10-26T15:09:58.216Z,16.00
2017-10-26T15:12:27.104Z,16.00
2017-10-26T15:14:57.358Z,16.00
2017-10-26T15:17:26.238Z,16.00
2017-10-26T15:19:55.129Z,15.90
2017-10-26T15:22:24.553Z,15.90
2017-10-26T15:24:54.452Z,15.90
2017-10-26T15:27:24.763Z,15.90
2017-10-26T15:29:53.634Z,15.90
2017-10-26T15:32:22.520Z,15.90
2017-10-26T15:34:51.398Z,15.80
2017-10-26T15:37:21.982Z,15.70
2017-10-26T15:39:50.881Z,15.70
2017-10-26T15:42:22.015Z,15.70
2017-10-26T15:44:52.168Z,15.60
2017-10-26T15:47:21.063Z,15.60
2017-10-26T15:49:50.732Z,15.60
2017-10-26T15:52:19.606Z,15.60
2017-10-26T15:54:49.107Z,15.50
2017-10-26T15:57:17.959Z,15.50
2017-10-26T15:59:48.023Z,15.50
2017-10-26T16:02:16.908Z,15.50
2017-10-26T16:04:45.770Z,15.40
2017-10-26T16:07:14.658Z,15.40
2017-10-26T16:12:31.527Z,15.30
2017-10-26T16:15:01.115Z,15.30
2017-10-26T16:17:30.199Z,15.30
2017-10-26T16:20:00.693Z,15.20
2017-10-26T16:22:29.634Z,15.20
2017-10-26T16:24:58.498Z,15.10
2017-10-26T16:27:28.206Z,15.10
2017-10-26T16:29:57.818Z,15.10
2017-10-26T16:32:27.489Z,15.10
2017-10-26T16:34:57.039Z,15.10
2017-10-26T16:37:26.730Z,15.00
2017-10-26T16:39:56.375Z,15.00
2017-10-26T16:42:25.244Z,15.00
2017-10-26T16:44:54.576Z,14.90
2017-10-26T16:47:24.266Z,14.90
2017-10-26T16:49:53.959Z,14.80
2017-10-26T16:52:24.415Z,14.80
2017-10-26T16:54:54.896Z,14.80
2017-10-26T16:57:23.778Z,14.90
2017-10-26T16:59:52.644Z,14.80
2017-10-26T17:02:22.243Z,14.80
2017-10-26T17:04:51.096Z,14.90
2017-10-26T17:07:20.490Z,14.90
2017-10-26T17:09:50.252Z,14.90
2017-10-26T17:12:20.131Z,14.80
2017-10-26T17:14:50.736Z,14.90
2017-10-26T17:17:21.136Z,14.90
2017-10-26T17:19:49.977Z,14.90
2017-10-26T17:22:18.852Z,14.90
2017-10-26T17:24:47.790Z,14.80
2017-10-26T17:27:16.640Z,14.80
2017-10-26T17:29:45.687Z,14.80
2017-10-26T17:32:15.505Z,14.70
2017-10-26T17:34:44.365Z,14.70
2017-10-26T17:37:13.235Z,14.70
2017-10-26T17:39:42.106Z,14.70
2017-10-26T17:42:11.002Z,14.70
2017-10-26T17:44:40.773Z,14.70
2017-10-26T17:47:10.435Z,14.70
2017-10-26T17:49:39.290Z,14.60
2017-10-26T17:52:08.147Z,14.60
2017-10-26T17:54:37.609Z,14.60
2017-10-26T17:57:06.955Z,14.60
2017-10-26T17:59:36.420Z,14.60
2017-10-26T18:02:05.279Z,14.60
2017-10-26T18:04:34.218Z,14.60
2017-10-26T18:07:03.991Z,14.60
2017-10-26T18:09:32.874Z,14.60
2017-10-26T18:12:01.782Z,14.60
2017-10-26T18:14:30.642Z,14.60
2017-10-26T18:17:00.395Z,14.60
2017-10-26T18:19:29.307Z,14.50
2017-10-26T18:21:58.222Z,14.50
2017-10-26T18:24:28.539Z,14.50
2017-10-26T18:26:57.475Z,14.50
2017-10-26T18:29:26.108Z,14.50
2017-10-26T18:31:55.687Z,14.50
2017-10-26T18:34:24.625Z,14.50
2017-10-26T18:36:54.826Z,14.50
2017-10-26T18:39:25.474Z,14.50
2017-10-26T18:41:55.675Z,14.50
2017-10-26T18:44:24.608Z,14.50
2017-10-26T18:49:26.791Z,14.50
2017-10-26T18:51:55.713Z,14.50
2017-10-26T18:54:25.135Z,14.50
2017-10-26T18:56:58.512Z,14.40
2017-10-26T18:59:28.336Z,14.40
2017-10-26T19:01:57.830Z,14.40
2017-10-26T19:04:27.705Z,14.40
2017-10-26T19:06:57.348Z,14.40
2017-10-26T19:09:26.028Z,14.40
2017-10-26T19:11:55.465Z,14.40
2017-10-26T19:14:24.488Z,14.40
2017-10-26T19:16:58.747Z,14.40
2017-10-26T19:19:28.442Z,14.40
2017-10-26T19:21:57.340Z,14.40
2017-10-26T19:24:27.121Z,14.40
2017-10-26T19:26:57.528Z,14.50
2017-10-26T19:29:30.609Z,14.50
2017-10-26T19:31:59.489Z,14.50
2017-10-26T19:34:31.511Z,14.50
2017-10-26T19:37:01.153Z,14.40
2017-10-26T19:39:30.914Z,14.40
2017-10-26T19:42:00.603Z,14.40
2017-10-26T19:44:29.751Z,14.40
2017-10-26T19:46:58.604Z,14.40
2017-10-26T19:49:29.393Z,14.40
2017-10-26T19:51:58.275Z,14.40
2017-10-26T19:54:27.139Z,14.40
2017-10-26T19:56:56.269Z,14.40
2017-10-26T19:59:25.137Z,14.40
2017-10-26T20:01:54.797Z,14.50
2017-10-26T20:04:23.655Z,14.40
2017-10-26T20:06:54.296Z,14.50
2017-10-26T20:09:23.155Z,14.50
2017-10-26T20:11:52.794Z,14.50
2017-10-26T20:14:21.664Z,14.50
2017-10-26T20:16:51.307Z,14.50
2017-10-26T20:19:20.165Z,14.40
2017-10-26T20:21:49.516Z,14.40
2017-10-26T20:24:18.415Z,14.40
2017-10-26T20:26:47.277Z,14.40
2017-10-26T20:29:17.213Z,14.40
2017-10-26T20:31:46.081Z,14.40
2017-10-26T20:34:15.086Z,14.30
2017-10-26T20:36:43.958Z,14.30
2017-10-26T20:39:12.819Z,14.30
2017-10-26T20:41:41.463Z,14.30
2017-10-26T20:44:10.778Z,14.30
2017-10-26T20:46:40.252Z,14.30
2017-10-26T20:49:20.764Z,14.30
2017-10-26T20:51:55.951Z,14.30
2017-10-26T20:54:37.514Z,14.30
2017-10-26T20:57:12.572Z,14.30
2017-10-26T20:59:46.904Z,14.30
2017-10-26T21:02:21.144Z,14.30
2017-10-26T21:04:56.329Z,14.30
2017-10-26T21:07:31.380Z,14.30
2017-10-26T21:10:00.088Z,14.20
2017-10-26T21:12:43.660Z,14.30
2017-10-26T21:15:13.111Z,14.30
2017-10-26T21:17:41.978Z,14.20
2017-10-26T21:20:11.625Z,14.30
2017-10-26T21:22:40.503Z,14.30
2017-10-26T21:25:09.107Z,14.20
2017-10-26T21:27:37.979Z,14.20
2017-10-26T21:30:07.589Z,14.30
2017-10-26T21:32:37.259Z,14.30
2017-10-26T21:35:06.108Z,14.30
2017-10-26T21:37:35.769Z,14.20
2017-10-26T21:40:05.430Z,14.20
2017-10-26T21:42:34.314Z,14.20
2017-10-26T21:45:04.024Z,14.20
2017-10-26T21:47:33.706Z,14.20
2017-10-26T21:50:03.343Z,14.20
2017-10-26T21:52:32.210Z,14.20
2017-10-26T21:55:01.570Z,14.20
2017-10-26T21:57:30.255Z,14.20
2017-10-26T21:59:59.100Z,14.20
2017-10-26T22:02:27.991Z,14.20
2017-10-26T22:04:56.840Z,14.20
2017-10-26T22:07:25.746Z,14.20
2017-10-26T22:09:57.152Z,14.20
2017-10-26T22:12:26.049Z,14.20
2017-10-26T22:14:54.897Z,14.10
2017-10-26T22:17:23.762Z,14.10
2017-10-26T22:19:52.656Z,14.10
2017-10-26T22:22:21.411Z,14.10
2017-10-26T22:24:50.382Z,14.10
2017-10-26T22:27:19.901Z,14.10
2017-10-26T22:29:49.244Z,14.10
2017-10-26T22:32:18.414Z,14.10
2017-10-26T22:34:47.283Z,14.10
2017-10-26T22:37:19.764Z,14.00
2017-10-26T22:39:50.406Z,14.00
2017-10-26T22:42:19.566Z,14.10
2017-10-26T22:44:49.195Z,14.10
2017-10-26T22:47:18.103Z,14.10
2017-10-26T22:49:46.976Z,14.10
2017-10-26T22:52:15.905Z,14.10
2017-10-26T22:54:44.775Z,14.00
2017-10-26T22:57:13.659Z,14.00
2017-10-26T22:59:42.508Z,14.00
2017-10-26T23:02:11.373Z,13.90
2017-10-26T23:04:40.234Z,13.90
2017-10-26T23:07:09.092Z,13.90
2017-10-26T23:09:38.723Z,13.90
2017-10-26T23:12:09.591Z,13.90
2017-10-26T23:14:38.805Z,13.90
2017-10-26T23:17:10.124Z,13.90
2017-10-26T23:19:39.356Z,14.00
2017-10-26T23:22:07.887Z,14.00
2017-10-26T23:24:36.776Z,13.90
2017-10-26T23:27:05.710Z,13.90
2017-10-26T23:29:34.822Z,13.90
2017-10-26T23:32:03.708Z,13.90
2017-10-26T23:34:34.212Z,13.90
2017-10-26T23:37:03.068Z,13.90
2017-10-26T23:39:32.714Z,14.00
2017-10-26T23:42:01.568Z,14.00
2017-10-26T23:44:30.424Z,14.00
2017-10-26T23:46:59.237Z,14.00
2017-10-26T23:49:29.054Z,14.00
2017-10-26T23:51:57.915Z,13.90
2017-10-26T23:54:26.828Z,14.00
2017-10-26T23:56:56.507Z,14.00
2017-10-26T23:59:25.387Z,14.00
